Time;durP1;ratioP1;P1;durP2;ratioP2;P2;SDS_P1;SDS_P2;PMS_P1;PMS_P2;Temp;Humidity;BMP_temperature;BMP_pressure;BME280_temperature;BME280_humidity;BME280_pressure;Samples;Min_cycle;Max_cycle;Signal;HPM_P1;HPM_P2
2022/09/25 00:02:19;;;;;;;12.18;9.10;;;14.60;99.90;;;;;;5031273;28;20199;-78
2022/09/25 00:04:46;;;;;;;13.82;9.25;;;14.70;99.90;;;;;;5026418;28;20204;-79
2022/09/25 00:07:13;;;;;;;12.60;9.60;;;14.70;99.90;;;;;;5028414;28;20214;-78
2022/09/25 00:09:41;;;;;;;13.15;9.85;;;14.70;99.90;;;;;;5024733;28;20206;-78
2022/09/25 00:12:08;;;;;;;15.70;10.23;;;14.80;99.90;;;;;;5028414;28;20211;-78
2022/09/25 00:14:37;;;;;;;11.65;8.73;;;14.70;99.90;;;;;;5032375;28;20194;-77
2022/09/25 00:17:05;;;;;;;12.13;8.73;;;14.70;99.90;;;;;;5027388;28;20219;-78
2022/09/25 00:19:49;;;;;;;15.38;9.32;;;14.70;99.90;;;;;;5020123;28;20218;-78
2022/09/25 00:22:17;;;;;;;13.23;8.55;;;14.70;99.90;;;;;;5032355;28;20197;-77
2022/09/25 00:24:46;;;;;;;11.55;8.05;;;14.70;99.90;;;;;;5029419;28;20203;-78
2022/09/25 00:27:14;;;;;;;10.95;7.15;;;14.70;99.90;;;;;;5032674;28;20223;-77
2022/09/25 00:29:43;;;;;;;11.85;7.65;;;14.80;99.90;;;;;;5029034;28;20198;-78
2022/09/25 00:32:11;;;;;;;8.85;6.80;;;14.80;99.90;;;;;;5020838;28;20223;-78
2022/09/25 00:34:39;;;;;;;8.85;6.88;;;14.80;99.90;;;;;;5027853;28;20206;-77
2022/09/25 00:37:07;;;;;;;10.63;7.47;;;14.80;99.90;;;;;;5027225;28;20704;-78
2022/09/25 00:39:35;;;;;;;8.02;6.82;;;14.80;99.90;;;;;;5025729;28;20191;-77
2022/09/25 00:42:02;;;;;;;9.30;6.32;;;14.80;99.90;;;;;;5026592;28;20199;-77
2022/09/25 00:44:59;;;;;;;9.50;6.00;;;14.90;99.90;;;;;;5031843;28;20207;-77
2022/09/25 00:47:41;;;;;;;10.30;6.20;;;14.80;99.90;;;;;;5015447;28;20212;-77
2022/09/25 00:50:26;;;;;;;9.45;6.90;;;14.80;99.90;;;;;;5026592;28;20202;-77
2022/09/25 00:52:56;;;;;;;8.43;5.80;;;14.70;99.90;;;;;;5030866;28;20226;-77
2022/09/25 00:55:24;;;;;;;6.00;4.82;;;14.70;99.90;;;;;;5029845;28;20191;-77
2022/09/25 00:57:56;;;;;;;9.40;5.25;;;14.70;99.90;;;;;;5022795;28;20234;-77
2022/09/25 01:00:25;;;;;;;9.32;5.30;;;14.60;99.90;;;;;;5028064;28;20199;-77
2022/09/25 01:02:54;;;;;;;8.10;4.70;;;14.50;99.90;;;;;;5032119;28;20207;-77
2022/09/25 01:05:25;;;;;;;8.82;3.97;;;14.50;99.90;;;;;;5031660;28;20195;-77
2022/09/25 01:07:56;;;;;;;5.47;3.25;;;14.50;99.90;;;;;;5027678;28;20224;-77
2022/09/25 01:10:23;;;;;;;5.47;2.90;;;14.40;99.90;;;;;;5032671;28;20199;-77
2022/09/25 01:12:52;;;;;;;6.38;3.10;;;14.50;99.90;;;;;;5042045;28;20220;-77
2022/09/25 01:15:22;;;;;;;7.18;2.80;;;14.60;99.90;;;;;;5026438;28;20203;-77
2022/09/25 01:18:00;;;;;;;10.20;3.60;;;14.60;99.90;;;;;;5022476;28;20227;-77
2022/09/25 01:20:43;;;;;;;5.63;3.00;;;14.40;99.90;;;;;;5030918;28;20203;-77
2022/09/25 01:23:20;;;;;;;3.67;2.80;;;14.30;99.90;;;;;;5024976;28;20192;-77
2022/09/25 01:26:04;;;;;;;5.93;2.45;;;14.30;99.90;;;;;;5031860;28;20198;-77
2022/09/25 01:29:01;;;;;;;7.68;2.88;;;14.40;99.90;;;;;;5026008;28;20191;-77
2022/09/25 01:31:34;;;;;;;5.22;2.67;;;14.50;99.90;;;;;;5009619;28;20204;-77
2022/09/25 01:34:14;;;;;;;5.07;3.00;;;14.50;99.90;;;;;;5027162;28;20191;-77
2022/09/25 01:36:48;;;;;;;6.32;2.58;;;14.50;99.90;;;;;;5031866;28;20236;-78
2022/09/25 01:39:21;;;;;;;5.78;2.65;;;14.50;99.90;;;;;;5028917;28;20209;-77
2022/09/25 01:41:54;;;;;;;7.07;2.95;;;14.40;99.90;;;;;;5053532;28;20549;-77
2022/09/25 01:44:36;;;;;;;7.55;2.70;;;14.30;99.90;;;;;;5031633;28;20210;-77
2022/09/25 01:47:09;;;;;;;3.88;2.33;;;14.40;99.90;;;;;;5022078;28;20234;-77
2022/09/25 01:49:40;;;;;;;8.18;2.92;;;14.40;99.90;;;;;;5029314;28;20203;-77
2022/09/25 01:52:12;;;;;;;7.82;2.30;;;14.30;99.90;;;;;;5023316;28;20218;-78
2022/09/25 01:54:44;;;;;;;4.80;2.08;;;14.40;99.90;;;;;;5028041;28;20210;-77
2022/09/25 01:57:18;;;;;;;5.90;2.15;;;14.40;99.90;;;;;;5025956;28;20222;-78
2022/09/25 01:59:54;;;;;;;5.45;2.00;;;14.40;99.90;;;;;;5043248;28;20213;-78
2022/09/25 02:02:26;;;;;;;6.32;2.28;;;14.40;99.90;;;;;;5028139;28;20195;-78
2022/09/25 02:04:58;;;;;;;9.48;2.13;;;14.30;99.90;;;;;;5027042;28;20657;-78
2022/09/25 02:07:33;;;;;;;7.22;2.38;;;14.30;99.90;;;;;;5029557;28;20221;-78
2022/09/25 02:10:07;;;;;;;4.47;1.92;;;14.30;99.90;;;;;;5035704;28;20202;-78
2022/09/25 02:12:39;;;;;;;6.15;2.20;;;14.40;99.90;;;;;;5027566;28;20214;-78
2022/09/25 02:15:13;;;;;;;8.82;2.10;;;14.40;99.90;;;;;;5021731;28;20202;-78
2022/09/25 02:20:35;;;;;;;2.88;1.80;;;14.40;99.90;;;;;;5024646;28;20563;-78
2022/09/25 02:23:12;;;;;;;5.40;2.05;;;14.40;99.90;;;;;;5023152;28;20198;-78
2022/09/25 02:25:44;;;;;;;5.28;1.90;;;14.50;99.90;;;;;;5027357;28;20207;-78
2022/09/25 02:28:11;;;;;;;5.75;1.73;;;14.40;99.90;;;;;;5030967;28;20214;-78
2022/09/25 02:30:40;;;;;;;3.30;1.58;;;14.50;99.90;;;;;;5025950;28;20207;-77
2022/09/25 02:33:09;;;;;;;5.88;1.83;;;14.40;99.90;;;;;;5027832;28;20578;-77
2022/09/25 02:35:37;;;;;;;5.88;2.50;;;14.50;99.90;;;;;;5031685;28;20317;-78
2022/09/25 02:38:05;;;;;;;4.72;1.80;;;14.40;99.90;;;;;;5026919;28;20230;-77
2022/09/25 02:40:39;;;;;;;7.40;2.28;;;14.40;99.90;;;;;;5026421;28;20203;-78
2022/09/25 02:43:19;;;;;;;3.20;1.85;;;14.40;99.90;;;;;;5043940;28;20195;-77
2022/09/25 02:45:59;;;;;;;5.15;1.83;;;14.40;99.90;;;;;;5024431;28;20195;-78
2022/09/25 02:48:33;;;;;;;5.57;1.67;;;14.40;99.90;;;;;;5025127;28;20207;-77
2022/09/25 02:51:08;;;;;;;7.20;2.10;;;14.50;99.90;;;;;;5025231;28;20214;-78
2022/09/25 02:53:40;;;;;;;5.60;1.90;;;14.50;99.90;;;;;;5028437;28;20205;-78
2022/09/25 02:56:13;;;;;;;3.80;2.20;;;14.40;99.90;;;;;;5023324;28;20210;-78
2022/09/25 02:58:42;;;;;;;3.60;1.55;;;14.40;99.90;;;;;;5028293;28;20187;-77
2022/09/25 03:01:16;;;;;;;4.28;1.90;;;14.30;99.90;;;;;;5023127;28;20202;-78
2022/09/25 03:03:45;;;;;;;4.32;1.85;;;14.20;99.90;;;;;;5029575;28;20210;-78
2022/09/25 03:06:13;;;;;;;4.85;1.85;;;14.20;99.90;;;;;;5025664;28;20222;-79
2022/09/25 03:08:43;;;;;;;5.03;2.70;;;14.10;99.90;;;;;;5028661;28;20685;-77
2022/09/25 03:11:14;;;;;;;5.13;1.88;;;14.10;99.90;;;;;;5026811;28;20187;-77
2022/09/25 03:13:43;;;;;;;5.75;2.35;;;14.00;99.90;;;;;;5031574;28;20210;-79
2022/09/25 03:16:16;;;;;;;4.57;2.08;;;14.00;99.90;;;;;;5029815;28;20229;-80
2022/09/25 03:18:44;;;;;;;3.63;1.58;;;14.10;99.90;;;;;;5028124;28;20664;-77
2022/09/25 03:21:11;;;;;;;5.20;2.40;;;14.10;99.90;;;;;;5030070;28;20202;-77
2022/09/25 03:23:39;;;;;;;6.22;1.77;;;14.10;99.90;;;;;;5030402;28;20195;-77
2022/09/25 03:26:07;;;;;;;4.72;2.40;;;14.10;99.90;;;;;;5044751;28;20219;-78
2022/09/25 03:28:35;;;;;;;5.47;1.77;;;14.00;99.90;;;;;;5038191;28;20203;-77
2022/09/25 03:31:04;;;;;;;6.40;1.70;;;14.00;99.90;;;;;;5027109;28;20194;-78
2022/09/25 03:33:35;;;;;;;5.18;2.10;;;14.00;99.90;;;;;;5023984;28;20681;-78
2022/09/25 03:36:09;;;;;;;4.38;1.83;;;14.00;99.90;;;;;;5022969;28;20203;-78
2022/09/25 03:38:41;;;;;;;5.80;1.92;;;14.00;99.90;;;;;;5024107;28;20195;-78
2022/09/25 03:41:10;;;;;;;6.35;1.80;;;13.90;99.90;;;;;;5019427;28;20211;-77
2022/09/25 03:43:39;;;;;;;4.82;1.95;;;14.00;99.90;;;;;;5044799;28;20199;-77
2022/09/25 03:46:07;;;;;;;4.75;1.70;;;14.00;99.90;;;;;;5026696;28;20229;-76
2022/09/25 03:48:36;;;;;;;7.88;2.47;;;13.90;99.90;;;;;;5026984;28;20195;-76
2022/09/25 03:51:06;;;;;;;7.25;2.08;;;14.00;99.90;;;;;;5024495;28;20187;-76
2022/09/25 03:53:34;;;;;;;4.78;1.60;;;14.00;99.90;;;;;;5020361;28;20219;-76
2022/09/25 03:56:03;;;;;;;6.45;2.00;;;14.00;99.90;;;;;;5020815;28;20199;-77
2022/09/25 03:58:31;;;;;;;6.72;2.03;;;14.00;99.90;;;;;;5029419;28;20566;-76
2022/09/25 04:01:00;;;;;;;5.32;2.00;;;13.90;99.90;;;;;;5028558;28;20570;-77
2022/09/25 04:03:28;;;;;;;7.05;2.35;;;13.90;99.90;;;;;;5023441;28;20212;-76
2022/09/25 04:05:59;;;;;;;5.72;2.28;;;13.90;99.90;;;;;;5027225;28;20206;-77
2022/09/25 04:08:27;;;;;;;6.45;1.90;;;13.90;99.90;;;;;;5028494;28;20199;-77
2022/09/25 04:10:58;;;;;;;8.23;1.98;;;14.00;99.90;;;;;;5024230;28;20195;-77
2022/09/25 04:13:28;;;;;;;6.88;2.20;;;14.00;99.90;;;;;;5024740;28;20219;-77
2022/09/25 04:15:56;;;;;;;4.57;1.95;;;14.00;99.90;;;;;;5028842;28;20669;-77
2022/09/25 04:18:24;;;;;;;4.90;2.20;;;14.00;99.90;;;;;;5029696;28;20200;-77
2022/09/25 04:20:52;;;;;;;5.82;2.40;;;13.90;99.90;;;;;;5044819;28;20219;-77
2022/09/25 04:23:20;;;;;;;5.68;2.47;;;13.90;99.90;;;;;;5049308;28;20195;-77
2022/09/25 04:25:48;;;;;;;9.88;2.10;;;14.00;99.90;;;;;;5032252;28;20564;-77
2022/09/25 04:28:16;;;;;;;6.65;2.08;;;14.00;99.90;;;;;;5020204;28;20219;-77
2022/09/25 04:30:43;;;;;;;5.53;2.03;;;13.90;99.90;;;;;;5029542;28;20203;-76
2022/09/25 04:35:55;;;;;;;8.23;2.17;;;13.90;99.90;;;;;;5029652;28;20653;-76
2022/09/25 04:38:24;;;;;;;9.85;2.20;;;13.80;99.90;;;;;;5033010;28;20210;-77
2022/09/25 04:40:52;;;;;;;6.25;2.00;;;13.80;99.90;;;;;;5048317;28;20202;-77
2022/09/25 04:43:19;;;;;;;5.65;2.35;;;13.80;99.90;;;;;;5033344;28;20199;-77
2022/09/25 04:45:47;;;;;;;4.10;1.65;;;13.80;99.90;;;;;;5032024;28;20586;-77
2022/09/25 04:48:14;;;;;;;5.38;2.13;;;13.70;99.90;;;;;;5030605;28;20560;-77
2022/09/25 04:50:47;;;;;;;5.93;1.83;;;13.70;99.90;;;;;;5026941;28;20202;-77
2022/09/25 04:53:15;;;;;;;6.95;2.40;;;13.60;99.90;;;;;;5046027;28;20222;-76
2022/09/25 04:55:45;;;;;;;4.78;1.80;;;13.60;99.90;;;;;;5022719;28;20199;-77
2022/09/25 04:58:12;;;;;;;6.63;2.40;;;13.40;99.90;;;;;;5029069;28;20207;-77
2022/09/25 05:00:41;;;;;;;3.83;2.13;;;13.40;99.90;;;;;;5032168;28;20294;-77
2022/09/25 05:03:08;;;;;;;5.20;2.38;;;13.40;99.90;;;;;;5035069;28;20561;-77
2022/09/25 05:05:35;;;;;;;6.38;2.05;;;13.30;99.90;;;;;;5040065;28;20195;-77
2022/09/25 05:08:04;;;;;;;6.15;2.20;;;13.20;99.90;;;;;;5029659;28;20214;-76
2022/09/25 05:10:34;;;;;;;6.57;2.03;;;13.10;99.90;;;;;;5031060;28;20322;-76
2022/09/25 05:13:04;;;;;;;5.03;1.80;;;13.20;99.90;;;;;;5030755;28;20213;-77
2022/09/25 05:15:32;;;;;;;3.85;1.80;;;13.10;99.90;;;;;;5027940;28;20199;-77
2022/09/25 05:18:01;;;;;;;6.80;2.30;;;13.20;99.90;;;;;;5025342;28;20388;-77
2022/09/25 05:20:28;;;;;;;7.65;2.47;;;13.30;99.90;;;;;;5045184;28;20199;-77
2022/09/25 05:22:56;;;;;;;4.47;2.00;;;13.40;99.90;;;;;;5031119;28;20199;-77
2022/09/25 05:25:24;;;;;;;4.93;1.95;;;13.50;99.90;;;;;;5032391;28;20202;-77
2022/09/25 05:27:54;;;;;;;4.55;1.90;;;13.60;99.90;;;;;;5027407;28;20218;-76
2022/09/25 05:30:23;;;;;;;5.05;1.60;;;13.50;99.90;;;;;;5024974;28;20218;-77
2022/09/25 05:32:52;;;;;;;6.63;2.00;;;13.50;99.90;;;;;;5031478;28;20202;-77
2022/09/25 05:35:21;;;;;;;5.03;1.88;;;13.50;99.90;;;;;;5029353;28;20228;-77
2022/09/25 05:37:48;;;;;;;4.10;1.95;;;13.50;99.90;;;;;;5031808;28;20230;-77
2022/09/25 05:40:18;;;;;;;6.00;2.00;;;13.60;99.90;;;;;;5030049;28;20586;-79
2022/09/25 05:42:45;;;;;;;4.72;1.67;;;13.60;99.90;;;;;;5033874;28;20202;-79
2022/09/25 05:45:13;;;;;;;6.53;1.95;;;13.50;99.90;;;;;;5032959;28;20568;-79
2022/09/25 05:47:45;;;;;;;7.22;2.10;;;13.50;99.90;;;;;;5022992;28;20218;-79
2022/09/25 05:50:55;;;;;;;5.47;1.80;;;13.30;99.90;;;;;;5023795;28;20206;-79
2022/09/25 05:53:23;;;;;;;7.45;2.53;;;13.30;99.90;;;;;;5018151;28;20217;-77
2022/09/25 05:55:51;;;;;;;4.22;1.70;;;13.30;99.90;;;;;;5029926;28;20203;-77
2022/09/25 05:58:19;;;;;;;7.05;1.90;;;13.30;99.90;;;;;;5023680;28;20195;-77
2022/09/25 06:00:47;;;;;;;5.45;1.92;;;13.40;99.90;;;;;;5023432;28;20194;-77
2022/09/25 06:03:18;;;;;;;6.03;2.42;;;13.20;99.90;;;;;;5027233;28;20269;-77
2022/09/25 06:05:45;;;;;;;9.63;1.95;;;13.20;99.90;;;;;;5027796;28;20199;-77
2022/09/25 06:08:13;;;;;;;6.07;2.10;;;13.10;99.90;;;;;;5026175;28;20200;-76
2022/09/25 06:10:41;;;;;;;6.65;2.10;;;13.10;99.90;;;;;;5027688;28;20634;-77
2022/09/25 06:13:09;;;;;;;4.43;2.00;;;13.00;99.90;;;;;;5026126;28;20702;-77
2022/09/25 06:15:38;;;;;;;3.78;1.85;;;12.80;99.90;;;;;;5022099;28;20223;-76
2022/09/25 06:18:11;;;;;;;5.38;2.33;;;12.80;99.90;;;;;;5021439;28;20227;-77
2022/09/25 06:20:40;;;;;;;4.78;2.22;;;12.80;99.90;;;;;;5019645;28;20194;-76
2022/09/25 06:23:07;;;;;;;3.65;2.08;;;12.80;99.90;;;;;;5034558;28;20203;-76
2022/09/25 06:25:35;;;;;;;4.22;1.67;;;12.70;99.90;;;;;;5024355;28;20564;-77
2022/09/25 06:28:03;;;;;;;4.93;1.80;;;12.60;99.90;;;;;;5040892;28;20226;-77
2022/09/25 06:30:34;;;;;;;6.45;2.13;;;12.70;99.90;;;;;;5026026;28;20203;-77
2022/09/25 06:33:10;;;;;;;5.75;1.95;;;12.80;99.90;;;;;;5038992;28;20208;-76
2022/09/25 06:35:43;;;;;;;5.85;2.30;;;12.70;99.90;;;;;;5021644;28;20206;-76
2022/09/25 06:38:11;;;;;;;5.90;2.00;;;12.90;99.90;;;;;;5024645;28;20226;-77
2022/09/25 06:40:39;;;;;;;7.97;2.08;;;13.10;99.90;;;;;;5021612;28;20214;-77
2022/09/25 06:43:09;;;;;;;6.22;2.30;;;13.40;99.90;;;;;;5024068;28;20206;-77
2022/09/25 06:45:37;;;;;;;6.20;3.20;;;13.40;99.90;;;;;;5018017;28;20376;-77
2022/09/25 06:48:07;;;;;;;7.22;2.20;;;13.40;99.90;;;;;;5021024;28;20219;-76
2022/09/25 06:50:40;;;;;;;6.53;2.25;;;13.50;99.90;;;;;;5022925;28;20206;-76
2022/09/25 06:53:10;;;;;;;6.80;2.10;;;13.70;99.90;;;;;;5019745;28;20207;-76
2022/09/25 06:55:37;;;;;;;4.55;1.95;;;13.50;99.90;;;;;;5024104;28;20571;-77
2022/09/25 06:58:07;;;;;;;3.63;2.28;;;13.60;99.90;;;;;;5036550;28;20222;-77
2022/09/25 07:00:35;;;;;;;8.68;2.35;;;13.60;99.90;;;;;;5024919;28;20206;-77
2022/09/25 07:13:40;;;;;;;6.45;2.13;;;13.90;99.90;;;;;;4951493;28;20204;-78
2022/09/25 07:19:51;;;;;;;5.75;2.97;;;13.90;99.90;;;;;;4932468;28;20249;-78
2022/09/25 07:22:19;;;;;;;7.82;3.08;;;13.90;99.90;;;;;;5028656;28;20464;-78
2022/09/25 07:24:48;;;;;;;6.95;2.08;;;13.90;99.90;;;;;;5024174;28;20187;-78
2022/09/25 07:27:17;;;;;;;7.82;3.25;;;13.90;99.90;;;;;;5026938;28;20298;-78
2022/09/25 07:30:04;;;;;;;4.55;1.80;;;14.00;99.90;;;;;;5024559;28;20210;-78
2022/09/25 07:32:32;;;;;;;13.82;5.07;;;14.10;99.90;;;;;;5023708;28;20699;-79
2022/09/25 07:35:00;;;;;;;6.72;2.80;;;14.60;99.90;;;;;;5022829;28;20218;-78
2022/09/25 07:37:28;;;;;;;7.00;2.38;;;15.10;99.90;;;;;;5022953;28;20222;-78
2022/09/25 07:40:00;;;;;;;6.22;2.30;;;15.10;99.90;;;;;;5035356;28;20206;-78
2022/09/25 07:42:28;;;;;;;5.50;1.92;;;14.80;99.90;;;;;;5025060;28;20677;-78
2022/09/25 07:44:57;;;;;;;6.10;1.80;;;14.50;99.90;;;;;;5022464;28;20210;-78
2022/09/25 07:47:24;;;;;;;3.47;1.63;;;14.40;99.90;;;;;;5019402;28;20222;-78
2022/09/25 07:49:52;;;;;;;5.38;1.60;;;14.40;99.90;;;;;;5021122;28;20204;-77
2022/09/25 07:52:19;;;;;;;7.57;2.00;;;14.20;99.90;;;;;;5022889;28;20203;-78
2022/09/25 07:54:47;;;;;;;10.02;1.92;;;14.30;99.90;;;;;;5021634;28;20234;-78
2022/09/25 07:57:19;;;;;;;4.45;1.60;;;14.30;99.90;;;;;;5028456;28;20222;-78
2022/09/25 07:59:46;;;;;;;4.35;1.70;;;14.30;99.90;;;;;;5028578;28;20206;-79
2022/09/25 08:02:15;;;;;;;6.85;2.10;;;14.10;99.90;;;;;;5030807;28;20210;-79
2022/09/25 08:04:43;;;;;;;5.15;1.42;;;14.20;99.90;;;;;;5026559;28;20206;-78
2022/09/25 08:07:11;;;;;;;3.08;1.48;;;14.20;99.90;;;;;;5029677;28;20592;-77
2022/09/25 08:09:39;;;;;;;6.57;1.70;;;14.20;99.90;;;;;;5032220;28;20687;-81
2022/09/25 08:12:10;;;;;;;7.40;2.30;;;14.20;99.90;;;;;;5040855;28;20206;-78
2022/09/25 08:14:37;;;;;;;6.32;1.92;;;14.40;99.90;;;;;;5028972;28;20199;-78
2022/09/25 08:17:05;;;;;;;4.88;1.40;;;14.50;99.90;;;;;;5043091;28;20215;-78
2022/09/25 08:19:33;;;;;;;4.53;1.48;;;14.40;99.90;;;;;;5031021;28;20210;-79
2022/09/25 08:22:01;;;;;;;7.50;1.80;;;14.50;99.90;;;;;;5030756;28;20202;-79
2022/09/25 08:24:29;;;;;;;4.93;1.45;;;14.50;99.90;;;;;;5031270;28;20198;-78
2022/09/25 08:26:56;;;;;;;8.32;1.80;;;14.70;99.90;;;;;;5023967;28;20223;-78
2022/09/25 08:29:24;;;;;;;6.72;1.60;;;14.70;99.90;;;;;;5023107;28;20210;-79
2022/09/25 08:32:11;;;;;;;4.53;1.50;;;14.60;99.90;;;;;;5025510;28;20206;-79
2022/09/25 08:35:09;;;;;;;6.82;1.30;;;14.60;99.90;;;;;;5022863;28;20203;-81
2022/09/25 08:41:08;;;;;;;5.00;2.28;;;14.60;99.90;;;;;;4948412;28;20197;-81
2022/09/25 08:43:44;;;;;;;4.97;1.38;;;14.70;99.90;;;;;;5026388;28;20225;-79
2022/09/25 08:49:09;;;;;;;5.30;2.13;;;14.80;99.90;;;;;;5039875;28;20206;-77
2022/09/25 08:51:41;;;;;;;4.88;1.77;;;14.80;99.90;;;;;;5024011;28;20203;-79
2022/09/25 08:54:15;;;;;;;5.35;1.45;;;14.80;99.90;;;;;;5022755;28;20668;-78
2022/09/25 08:56:43;;;;;;;3.15;1.02;;;14.70;99.90;;;;;;5027131;28;20233;-78
2022/09/25 08:59:25;;;;;;;6.30;1.40;;;14.70;99.90;;;;;;5022488;28;20210;-78
2022/09/25 09:01:57;;;;;;;2.10;1.27;;;14.80;99.90;;;;;;5031053;28;20211;-80
2022/09/25 09:04:30;;;;;;;3.50;1.52;;;14.80;99.90;;;;;;5031590;28;20198;-80
2022/09/25 09:07:06;;;;;;;4.00;1.13;;;14.80;99.90;;;;;;5048078;28;20219;-80
2022/09/25 09:09:39;;;;;;;4.65;1.40;;;14.70;99.90;;;;;;5037197;28;20198;-81
2022/09/25 09:12:11;;;;;;;4.32;1.13;;;14.80;99.90;;;;;;5036864;28;20531;-80
2022/09/25 09:14:44;;;;;;;3.95;1.15;;;14.80;99.90;;;;;;5033199;28;20199;-80
2022/09/25 09:17:17;;;;;;;3.70;1.15;;;15.00;99.90;;;;;;5031581;28;20740;-80
2022/09/25 09:19:52;;;;;;;2.35;1.20;;;15.10;99.90;;;;;;5036243;28;20191;-80
2022/09/25 09:22:28;;;;;;;6.70;1.58;;;15.20;99.90;;;;;;5032113;28;20198;-80
2022/09/25 09:25:04;;;;;;;3.47;0.90;;;15.20;99.90;;;;;;5032876;28;20206;-79
2022/09/25 09:27:50;;;;;;;2.22;0.80;;;15.20;99.90;;;;;;5039671;28;20219;-78
2022/09/25 09:30:22;;;;;;;5.45;1.42;;;15.20;99.90;;;;;;5039281;28;20210;-79
2022/09/25 09:33:13;;;;;;;1.52;0.90;;;15.40;99.90;;;;;;5039811;28;20209;-79
2022/09/25 09:35:53;;;;;;;3.70;0.80;;;15.60;99.90;;;;;;5040046;28;20226;-81
2022/09/25 09:38:30;;;;;;;3.10;0.95;;;16.00;99.90;;;;;;5036679;28;20218;-79
2022/09/25 09:41:14;;;;;;;3.03;0.80;;;16.10;99.90;;;;;;5036769;28;20203;-79
2022/09/25 09:44:08;;;;;;;3.85;0.95;;;16.00;99.20;;;;;;5041036;28;20195;-79
2022/09/25 09:46:46;;;;;;;3.67;0.98;;;16.10;99.90;;;;;;5029075;28;20218;-79
2022/09/25 09:49:18;;;;;;;2.97;0.90;;;16.00;99.30;;;;;;5052886;28;20212;-78
2022/09/25 09:51:51;;;;;;;3.70;1.08;;;15.90;99.20;;;;;;5037369;28;20595;-79
2022/09/25 09:54:34;;;;;;;5.10;1.15;;;16.10;99.50;;;;;;5039106;28;20198;-79
2022/09/25 09:57:08;;;;;;;2.15;0.70;;;16.10;99.30;;;;;;5037391;28;20235;-80
2022/09/25 09:59:45;;;;;;;2.38;0.63;;;16.30;98.10;;;;;;5028203;28;20200;-79
2022/09/25 10:02:30;;;;;;;5.95;1.50;;;16.40;97.00;;;;;;5038995;28;20210;-80
2022/09/25 10:05:04;;;;;;;1.33;0.63;;;16.60;96.50;;;;;;5035534;28;20211;-79
2022/09/25 10:07:35;;;;;;;2.90;0.90;;;16.60;96.10;;;;;;5051522;28;20554;-79
2022/09/25 10:10:12;;;;;;;8.32;1.50;;;16.70;95.20;;;;;;5035304;28;20187;-79
2022/09/25 10:12:43;;;;;;;5.28;0.95;;;17.00;95.70;;;;;;5031913;28;20210;-78
2022/09/25 10:15:19;;;;;;;2.78;0.98;;;16.50;96.00;;;;;;5051473;28;20218;-81
2022/09/25 10:17:48;;;;;;;2.22;0.80;;;16.60;95.90;;;;;;5034051;28;20210;-79
2022/09/25 10:20:20;;;;;;;3.75;1.70;;;16.70;95.10;;;;;;5036073;28;20195;-79
2022/09/25 10:22:50;;;;;;;2.78;1.00;;;16.80;95.40;;;;;;5032586;28;20202;-79
2022/09/25 10:25:35;;;;;;;2.53;1.10;;;16.90;95.40;;;;;;5027784;28;20199;-78
2022/09/25 10:28:22;;;;;;;3.00;0.95;;;16.70;95.20;;;;;;5033962;28;20211;-79
2022/09/25 10:30:52;;;;;;;1.90;0.70;;;16.50;95.60;;;;;;5028935;28;20607;-79
2022/09/25 10:33:21;;;;;;;2.22;0.82;;;16.50;95.20;;;;;;5031169;28;20218;-79
2022/09/25 10:35:53;;;;;;;3.03;0.63;;;16.70;94.30;;;;;;5029382;28;20215;-79
2022/09/25 10:38:32;;;;;;;1.92;0.75;;;17.00;94.30;;;;;;5028107;28;20206;-80
2022/09/25 10:41:03;;;;;;;1.85;0.70;;;17.20;93.30;;;;;;5032935;28;20198;-78
2022/09/25 10:43:31;;;;;;;2.13;0.88;;;17.10;92.00;;;;;;5046631;28;20198;-79
2022/09/25 10:46:11;;;;;;;1.42;0.63;;;17.20;92.90;;;;;;5034331;28;20195;-79
2022/09/25 10:51:25;;;;;;;2.72;0.88;;;17.50;92.10;;;;;;5032110;28;20190;-79
2022/09/25 10:53:56;;;;;;;3.50;1.08;;;17.50;92.30;;;;;;5031378;28;20200;-79
2022/09/25 10:56:31;;;;;;;2.35;1.08;;;17.20;93.80;;;;;;5033587;28;20222;-79
2022/09/25 10:59:01;;;;;;;2.35;0.85;;;16.60;94.20;;;;;;5032796;28;20410;-79
2022/09/25 11:01:34;;;;;;;1.45;0.60;;;16.70;94.00;;;;;;5028005;28;20660;-80
2022/09/25 11:04:05;;;;;;;3.58;0.82;;;16.90;93.30;;;;;;5034030;28;20205;-78
2022/09/25 11:06:35;;;;;;;2.40;0.75;;;17.20;92.50;;;;;;5029067;28;20214;-79
2022/09/25 11:09:13;;;;;;;3.80;1.00;;;17.10;91.60;;;;;;5027023;28;20199;-79
2022/09/25 11:11:44;;;;;;;2.78;1.30;;;17.00;92.60;;;;;;5029024;28;20210;-78
2022/09/25 11:14:23;;;;;;;5.32;1.50;;;17.10;93.50;;;;;;5030470;28;20199;-79
2022/09/25 11:16:54;;;;;;;3.70;1.08;;;17.30;93.50;;;;;;5029007;28;20214;-79
2022/09/25 11:19:27;;;;;;;3.58;1.15;;;17.00;93.30;;;;;;5029632;28;20203;-79
2022/09/25 11:22:09;;;;;;;2.85;0.60;;;16.90;93.00;;;;;;5031510;28;20214;-79
2022/09/25 11:24:52;;;;;;;2.38;0.63;;;16.60;93.00;;;;;;5033487;28;20195;-79
2022/09/25 11:27:26;;;;;;;2.25;0.90;;;16.60;93.20;;;;;;5025945;28;20223;-80
2022/09/25 11:30:02;;;;;;;2.20;0.93;;;16.90;96.30;;;;;;5031167;28;20191;-82
2022/09/25 11:32:38;;;;;;;3.38;0.85;;;17.70;96.10;;;;;;5030601;28;20214;-80
2022/09/25 11:35:36;;;;;;;3.10;0.73;;;18.00;92.40;;;;;;5035542;28;20198;-79
2022/09/25 11:38:13;;;;;;;3.38;0.75;;;18.30;91.00;;;;;;5035244;28;20218;-78
2022/09/25 11:41:11;;;;;;;1.33;0.65;;;18.50;89.60;;;;;;5040501;28;20190;-79
2022/09/25 11:43:59;;;;;;;1.83;0.77;;;18.50;86.30;;;;;;5036367;28;20206;-80
2022/09/25 11:46:36;;;;;;;3.45;0.77;;;18.50;85.20;;;;;;5050565;28;20211;-80
2022/09/25 11:49:14;;;;;;;5.40;1.15;;;18.50;82.00;;;;;;5037907;28;20222;-80
2022/09/25 11:52:09;;;;;;;3.30;0.70;;;18.30;83.20;;;;;;5039481;28;20207;-79
2022/09/25 11:54:48;;;;;;;2.00;0.70;;;18.50;83.00;;;;;;5035911;28;20200;-80
2022/09/25 11:57:21;;;;;;;3.17;1.17;;;19.10;80.90;;;;;;5034367;28;20233;-80
2022/09/25 12:00:03;;;;;;;2.65;0.80;;;19.20;78.40;;;;;;5053407;28;20209;-80
2022/09/25 12:02:56;;;;;;;1.08;0.68;;;19.30;76.90;;;;;;5048288;28;20195;-80
2022/09/25 12:05:40;;;;;;;2.25;0.47;;;18.90;72.60;;;;;;5039268;28;20192;-80
2022/09/25 12:08:23;;;;;;;2.45;0.70;;;18.50;70.30;;;;;;5052332;28;20223;-79
2022/09/25 12:11:00;;;;;;;0.90;0.52;;;18.40;73.50;;;;;;5037852;28;20204;-79
2022/09/25 12:13:37;;;;;;;2.35;0.70;;;19.00;73.80;;;;;;5035011;28;20206;-79
2022/09/25 12:16:15;;;;;;;2.58;0.70;;;19.80;71.30;;;;;;5030774;28;20199;-79
2022/09/25 12:19:02;;;;;;;1.17;0.55;;;19.70;73.50;;;;;;5052192;28;20219;-79
2022/09/25 12:21:40;;;;;;;2.40;0.73;;;19.90;73.60;;;;;;5031481;28;20199;-79
2022/09/25 12:24:17;;;;;;;2.03;0.82;;;20.10;72.00;;;;;;5053463;28;20202;-79
2022/09/25 12:26:51;;;;;;;2.55;0.85;;;19.70;74.00;;;;;;5031447;28;20222;-79
2022/09/25 12:29:35;;;;;;;2.13;1.20;;;19.00;74.20;;;;;;5037085;28;20211;-79
2022/09/25 12:32:14;;;;;;;2.53;1.08;;;18.90;74.70;;;;;;5037468;28;20210;-79
2022/09/25 12:34:59;;;;;;;2.08;0.98;;;19.00;75.40;;;;;;5036845;28;20198;-79
2022/09/25 12:37:49;;;;;;;1.48;0.57;;;20.10;72.50;;;;;;5045165;28;20242;-79
2022/09/25 12:40:25;;;;;;;2.55;0.85;;;20.20;61.70;;;;;;5048461;28;20203;-79
2022/09/25 12:42:57;;;;;;;2.15;0.73;;;20.20;59.80;;;;;;5035226;28;20198;-79
2022/09/25 12:45:31;;;;;;;1.15;0.65;;;21.00;56.20;;;;;;5034016;28;20218;-78
2022/09/25 12:48:10;;;;;;;1.00;0.40;;;20.20;58.70;;;;;;5029072;28;20214;-79
2022/09/25 12:50:46;;;;;;;1.15;0.70;;;21.40;59.20;;;;;;5027535;28;20203;-81
2022/09/25 12:53:24;;;;;;;3.58;0.80;;;22.20;55.20;;;;;;5044037;28;20191;-80
2022/09/25 12:55:59;;;;;;;2.22;0.90;;;22.10;54.00;;;;;;5041435;28;20202;-81
2022/09/25 12:58:44;;;;;;;1.60;0.63;;;21.30;55.40;;;;;;5023311;28;20574;-81
2022/09/25 13:01:19;;;;;;;1.83;0.90;;;21.00;57.10;;;;;;5024334;28;20199;-79
2022/09/25 13:03:56;;;;;;;2.10;0.70;;;20.60;59.80;;;;;;5022425;28;20199;-80
2022/09/25 13:06:34;;;;;;;3.30;1.13;;;21.00;61.10;;;;;;5023803;28;20240;-81
2022/09/25 13:09:07;;;;;;;2.53;0.57;;;22.50;55.50;;;;;;5027957;28;20199;-79
2022/09/25 13:11:44;;;;;;;2.63;0.55;;;22.90;55.00;;;;;;5028990;28;20206;-81
2022/09/25 13:14:31;;;;;;;2.25;0.73;;;21.40;54.00;;;;;;5029078;28;20763;-83
2022/09/25 13:17:00;;;;;;;3.20;1.13;;;21.30;57.30;;;;;;5024627;28;20223;-83
2022/09/25 13:19:33;;;;;;;1.08;0.60;;;22.70;54.10;;;;;;5028775;28;20210;-82
2022/09/25 13:22:06;;;;;;;1.75;0.70;;;23.10;52.00;;;;;;5031607;28;20209;-81
2022/09/25 13:24:42;;;;;;;2.10;0.50;;;23.10;50.90;;;;;;5027206;28;20190;-80
2022/09/25 13:27:15;;;;;;;1.50;0.55;;;23.00;47.00;;;;;;5028957;28;20222;-81
2022/09/25 13:29:42;;;;;;;1.38;0.65;;;23.10;49.90;;;;;;5045207;28;20214;-81
2022/09/25 13:32:16;;;;;;;2.42;1.00;;;23.10;47.80;;;;;;5029545;28;20564;-81
2022/09/25 13:34:46;;;;;;;2.00;0.88;;;23.60;47.50;;;;;;5031717;28;20210;-81
2022/09/25 13:37:16;;;;;;;2.75;0.60;;;23.40;48.30;;;;;;5031605;28;20238;-81
2022/09/25 13:42:37;;;;;;;0.80;0.43;;;22.20;49.00;;;;;;5024396;28;20215;-81
2022/09/25 13:45:27;;;;;;;2.10;0.80;;;22.30;49.90;;;;;;5028523;28;20210;-82
2022/09/25 13:48:03;;;;;;;2.67;0.80;;;23.50;51.40;;;;;;5027501;28;20216;-82